Карта
Морски нива
Данни за вълнение
Данни за вълнение 1
Пункт Вятър (m/s) Порив (m/s) Посока (°) Вятър (kn) Порив (kn) Температура (°C) Налягане Влажност Последно обновяване Видимост Последно обновяване (видимост)
1.2 1.4 313.3 2.33 2.72 26.0 1008.6 64.1 14/07/24 22:05 20000 14/07/24 22:05
0.6 0.7 306.3 1.17 1.36 21.6 1005.1 86.6 14/07/24 22:05 20000 14/07/24 22:05
1.4 1.5 355.3 2.72 2.92 25.0 988.4 56.4 14/07/24 22:05 20000 14/07/24 22:05
3.2 3.6 332.3 6.22 7 25.9 1009.5 43.0 14/07/24 22:05 20000 14/07/24 22:05
1.5 1.7 87.0 2.92 3.3 26.8 1009.5 62.6 14/07/24 22:05 20000 14/07/24 22:05
0.3 0.4 248.3 0.58 0.78 25.3 1008.3 71.2 14/07/24 22:05 20000 14/07/24 22:05
1.6 1.8 262.0 3.11 3.5 24.9 1008.6 65.4 14/07/24 22:05 N/A N/A
1.2 1.4 170.7 2.33 2.72 25.3 1008.7 74.7 14/07/24 22:05 20000 14/07/24 22:05
0.7 1.1 346.3 1.36 2.14 N/A N/A N/A 14/07/24 22:05 N/A N/A
1.2 1.4 313.5 2.33 2.72 23.2 1009.7 50.4 14/07/24 22:05 20000 14/07/24 22:05
0.5 1 184.0 0.97 1.94 24.9 1008.8 59.2 14/07/24 22:05 N/A N/A
1.3 1.5 282.3 2.53 2.92 24.6 1008.4 56.2 14/07/24 22:05 20000 14/07/24 22:05
1.6 2.1 52.1 3.11 4.08 23.9 1008.5 62.0 14/07/24 22:05 20000 14/07/24 22:05
2.6 2.6 66.0 5.05 5.05 25.7 1006.4 48.1 14/07/24 22:05 N/A N/A
1.9 2 20.3 3.69 3.89 24.4 986.4 85.5 14/07/24 22:05 20000 14/07/24 22:05
4.1 4.2 2.7 7.97 8.16 23.8 982.1 73.8 14/07/24 22:05 20000 14/07/24 22:05
3.1 3.4 91.7 6.03 6.61 26.6 1010.6 55.9 14/07/24 22:05 17095 14/07/24 22:05
2.3 2.6 45.5 4.47 5.05 26.5 1011.0 72.7 14/07/24 22:05 18052 14/07/24 22:05
2.8 2.9 72.0 5.44 5.64 26.6 1008.3 70.8 14/07/24 22:05 20000 14/07/24 22:05
3.0 3.4 93.0 5.83 6.61 26.5 1009.4 63.0 14/07/24 22:05 20000 14/07/24 22:05
0.6 0.7 132.0 1.17 1.36 24.9 1009.9 86.0 14/07/24 22:05 20000 14/07/24 22:05
2.1 2.4 10.0 4.08 4.67 23.6 986.5 95.4 14/07/24 22:05 20000 14/07/24 22:05
3.3 4 30.3 6.41 7.78 25.9 1006.5 74.0 14/07/24 22:05 20000 14/07/24 22:05

Данни за морската вода и теченията в района на Пристанищен терминал "Петрол" и Пристанищен терминал "Одесос ПБМ"
Станция Скорост (m/s) Скорост (kn) Посока(°) Температура(°C) Налягане на водния сензор(mbar) Прилив/Отлив(m) Ниво на водата над сензора(m) Последно обновяване
0.14 0.27 291 28 1342 0.27 3.37 14/07/24 22:01
0.19 0.37 254 26 1345 0.28 3.4 14/07/24 22:01
0.25 0.49 54 26 1323 0.26 3.16 14/07/24 22:02